KEDC

Austin Executive Airport

Austin, Texas, USA
METAR KEDC 220215Z AUTO 00000KT 10SM CLR 22/22 A2996 RMK AO2
Observed Flight Rules
May-22 @ 02:15 UTC (23 minutes ago) Visual Flight Rules
Visibility Clouds
10 miles
  • Clear skies
Temperatures Readings
Current 22°C / 72°F
Dewpoint 22°C / 72°F
Humidity 100%
Altimeter 29.96" Hg
Pressure 1015 hPa
Elevation 189
METAR KEDC 220215Z AUTO 00000KT 10SM CLR 22/22 A2996 RMK AO2
Observed Flight Rules
May-22 @ 02:15 UTC
(23 minutes ago)
VFR
Clouds
  • Clear skies
Temperature Dewpoint
22°C / 72°F 22°C / 72°F
Humidity Altimeter Pressure
100% 29.96" Hg 1015 hPa